Главная страница
METAR-TAF:

METAR-TAF

Аэропорты :

Маради, Нигер

широта: 13-28N, долгота: 007-05E, высота над уровнем моря: 372 м

Текущие метеонаблюдения

Эта сводка был подготовлена 10 часа и 22 минут назад, в 18:00 UTC
Ветер 6 Узел от западный
Температура 36°C
Влажность 47%
Давление 1008 hPa
Видимость 10 км и более
Нет облачности ниже 1500 м, и нет кучево-дождевой облачности

METAR: DRRM 231800Z 26006KT CAVOK 36/23 Q1008

Время: 05:22 (04:22 UTC)


TAF: отсутствует

Метеонаблюдения и прогнозы для более 4000 аэропортов (сводки METAR и TAF).

Имеющиеся станции представлены на карте желтыми и красными точками.

Чтобы увидеть название станции, наведите на нее мышь.

Затем щелкните, чтобы увидеть метеонаблюдения и метеопрогнозы.

Управление картой: чтобы увеличить масштаб, щелкните зеленые кнопки с черным крестиком; чтобы уменьшить масштаб, щелкните зеленую кнопку с тире; для просмотра соседних карт щелкайте зеленые стрелки.


METAR-TAF: